Washington, District of Columbia
Traffic Map
Current Weather Conditions
Washington, District of Columbia
Overcast Light Snow
Overcast

Feels Like: -2°
Wind Chill: -2° Ceiling: 900
Heat Index: Visibility: 2.5mi
Dew Point: -1° Wind: 10mph
Humidity: 81% Direction: 40° (NE)
Pressure: 29.8in Gusts: 0mph
Raw Report DataKDCA 261614Z 04009KT 2 1/2SM -SN OVC009 02/M01 A2980 RMK AO2 RAE02 VIS S 4 P0001
Traffic Incident Summary
Active as of:
Severity:
Category:
InformationThere was an issue retrieving the traffic information for this location. Please try a different location or try again shortly.
Advertisements
Track Severe Weather on mobile